sensor_id;sensor_type;location;lat;lon;timestamp;temperature;humidity
5492;DHT22;2768;53.540;10.224;2023-07-09T00:04:26;22.60;1.00
5492;DHT22;2768;53.540;10.224;2023-07-09T00:10:21;22.50;1.00
5492;DHT22;2768;53.540;10.224;2023-07-09T00:16:19;22.50;1.00
5492;DHT22;2768;53.540;10.224;2023-07-09T00:22:15;22.50;1.00
5492;DHT22;2768;53.540;10.224;2023-07-09T00:28:13;22.30;1.00
5492;DHT22;2768;53.540;10.224;2023-07-09T00:34:09;22.30;1.00
5492;DHT22;2768;53.540;10.224;2023-07-09T00:40:11;22.30;1.00
5492;DHT22;2768;53.540;10.224;2023-07-09T00:52:43;22.20;1.00
5492;DHT22;2768;53.540;10.224;2023-07-09T00:58:40;22.20;1.00
5492;DHT22;2768;53.540;10.224;2023-07-09T01:04:35;22.20;1.00
5492;DHT22;2768;53.540;10.224;2023-07-09T01:10:34;21.90;1.00
5492;DHT22;2768;53.540;10.224;2023-07-09T01:16:31;21.90;1.00
5492;DHT22;2768;53.540;10.224;2023-07-09T01:22:26;21.90;1.00
5492;DHT22;2768;53.540;10.224;2023-07-09T01:28:22;21.90;1.00
5492;DHT22;2768;53.540;10.224;2023-07-09T01:34:16;21.80;1.00
5492;DHT22;2768;53.540;10.224;2023-07-09T01:40:13;21.60;1.00
5492;DHT22;2768;53.540;10.224;2023-07-09T01:46:22;21.50;1.00
5492;DHT22;2768;53.540;10.224;2023-07-09T01:52:16;21.60;1.00
5492;DHT22;2768;53.540;10.224;2023-07-09T01:58:12;21.60;1.00
5492;DHT22;2768;53.540;10.224;2023-07-09T02:04:05;21.50;1.00
5492;DHT22;2768;53.540;10.224;2023-07-09T02:09:59;21.50;1.00
5492;DHT22;2768;53.540;10.224;2023-07-09T02:15:54;21.50;1.00
5492;DHT22;2768;53.540;10.224;2023-07-09T02:21:48;21.40;1.00
5492;DHT22;2768;53.540;10.224;2023-07-09T02:27:41;21.50;1.00
5492;DHT22;2768;53.540;10.224;2023-07-09T02:33:36;21.40;1.00
5492;DHT22;2768;53.540;10.224;2023-07-09T02:39:30;21.40;1.00
5492;DHT22;2768;53.540;10.224;2023-07-09T02:45:24;21.30;1.00
5492;DHT22;2768;53.540;10.224;2023-07-09T02:51:19;21.20;1.00
5492;DHT22;2768;53.540;10.224;2023-07-09T02:57:12;20.80;1.00
5492;DHT22;2768;53.540;10.224;2023-07-09T03:03:06;20.90;1.00
5492;DHT22;2768;53.540;10.224;2023-07-09T03:09:01;21.00;1.00
5492;DHT22;2768;53.540;10.224;2023-07-09T03:14:55;20.90;1.00
5492;DHT22;2768;53.540;10.224;2023-07-09T03:20:48;20.90;1.00
5492;DHT22;2768;53.540;10.224;2023-07-09T03:26:43;20.90;1.00
5492;DHT22;2768;53.540;10.224;2023-07-09T03:32:37;20.60;1.00
5492;DHT22;2768;53.540;10.224;2023-07-09T03:38:31;20.60;1.00
5492;DHT22;2768;53.540;10.224;2023-07-09T03:44:26;20.70;1.00
5492;DHT22;2768;53.540;10.224;2023-07-09T03:50:19;20.60;1.00
5492;DHT22;2768;53.540;10.224;2023-07-09T03:56:15;20.40;1.00
5492;DHT22;2768;53.540;10.224;2023-07-09T04:02:10;20.50;1.00
5492;DHT22;2768;53.540;10.224;2023-07-09T04:08:04;20.40;1.00
5492;DHT22;2768;53.540;10.224;2023-07-09T04:13:58;20.50;1.00
5492;DHT22;2768;53.540;10.224;2023-07-09T04:19:53;20.40;1.00
5492;DHT22;2768;53.540;10.224;2023-07-09T04:25:46;20.60;1.00
5492;DHT22;2768;53.540;10.224;2023-07-09T04:31:40;20.50;1.00
5492;DHT22;2768;53.540;10.224;2023-07-09T04:37:36;20.50;1.00
5492;DHT22;2768;53.540;10.224;2023-07-09T04:43:29;20.40;1.00
5492;DHT22;2768;53.540;10.224;2023-07-09T04:49:23;20.50;1.00
5492;DHT22;2768;53.540;10.224;2023-07-09T04:55:18;20.40;1.00
5492;DHT22;2768;53.540;10.224;2023-07-09T05:01:12;20.30;1.00
5492;DHT22;2768;53.540;10.224;2023-07-09T05:07:06;20.50;1.00
5492;DHT22;2768;53.540;10.224;2023-07-09T05:13:01;20.30;1.00
5492;DHT22;2768;53.540;10.224;2023-07-09T05:18:55;20.50;1.00
5492;DHT22;2768;53.540;10.224;2023-07-09T05:24:48;20.50;1.00
5492;DHT22;2768;53.540;10.224;2023-07-09T05:30:43;20.40;1.00
5492;DHT22;2768;53.540;10.224;2023-07-09T05:36:37;20.50;1.00
5492;DHT22;2768;53.540;10.224;2023-07-09T05:42:30;20.50;1.00
5492;DHT22;2768;53.540;10.224;2023-07-09T05:48:25;20.60;1.00
5492;DHT22;2768;53.540;10.224;2023-07-09T05:54:19;20.70;1.00
5492;DHT22;2768;53.540;10.224;2023-07-09T06:00:14;20.80;1.00
5492;DHT22;2768;53.540;10.224;2023-07-09T06:06:09;20.80;1.00
5492;DHT22;2768;53.540;10.224;2023-07-09T06:12:03;20.90;1.00
5492;DHT22;2768;53.540;10.224;2023-07-09T06:17:57;21.10;1.00
5492;DHT22;2768;53.540;10.224;2023-07-09T06:23:51;21.20;1.00
5492;DHT22;2768;53.540;10.224;2023-07-09T06:29:44;21.20;1.00
5492;DHT22;2768;53.540;10.224;2023-07-09T06:35:38;21.30;1.00
5492;DHT22;2768;53.540;10.224;2023-07-09T06:41:33;21.40;1.00
5492;DHT22;2768;53.540;10.224;2023-07-09T06:47:32;21.50;1.00
5492;DHT22;2768;53.540;10.224;2023-07-09T06:53:27;21.60;1.00
5492;DHT22;2768;53.540;10.224;2023-07-09T06:59:22;21.80;1.00
5492;DHT22;2768;53.540;10.224;2023-07-09T07:05:15;21.90;1.00
5492;DHT22;2768;53.540;10.224;2023-07-09T07:11:10;22.10;1.00
5492;DHT22;2768;53.540;10.224;2023-07-09T07:17:05;22.20;1.00
5492;DHT22;2768;53.540;10.224;2023-07-09T07:22:58;22.30;1.00
5492;DHT22;2768;53.540;10.224;2023-07-09T07:28:52;22.40;1.00
5492;DHT22;2768;53.540;10.224;2023-07-09T07:34:47;22.50;1.00
5492;DHT22;2768;53.540;10.224;2023-07-09T07:40:44;22.60;1.00
5492;DHT22;2768;53.540;10.224;2023-07-09T07:46:37;22.70;1.00
5492;DHT22;2768;53.540;10.224;2023-07-09T07:52:32;22.90;1.00
5492;DHT22;2768;53.540;10.224;2023-07-09T07:58:30;22.90;1.00
5492;DHT22;2768;53.540;10.224;2023-07-09T08:04:23;23.00;1.00
5492;DHT22;2768;53.540;10.224;2023-07-09T08:10:18;23.10;1.00
5492;DHT22;2768;53.540;10.224;2023-07-09T08:16:11;23.20;1.00
5492;DHT22;2768;53.540;10.224;2023-07-09T08:22:06;23.40;1.00
5492;DHT22;2768;53.540;10.224;2023-07-09T08:28:01;23.50;1.00
5492;DHT22;2768;53.540;10.224;2023-07-09T08:33:54;23.60;1.00
5492;DHT22;2768;53.540;10.224;2023-07-09T08:39:47;23.70;1.00
5492;DHT22;2768;53.540;10.224;2023-07-09T08:45:47;23.80;1.00
5492;DHT22;2768;53.540;10.224;2023-07-09T08:51:44;23.90;1.00
5492;DHT22;2768;53.540;10.224;2023-07-09T08:57:40;24.00;1.00
5492;DHT22;2768;53.540;10.224;2023-07-09T09:03:40;24.10;1.00
5492;DHT22;2768;53.540;10.224;2023-07-09T09:09:39;24.30;1.00
5492;DHT22;2768;53.540;10.224;2023-07-09T09:15:33;24.30;1.00
5492;DHT22;2768;53.540;10.224;2023-07-09T09:21:32;24.50;1.00
5492;DHT22;2768;53.540;10.224;2023-07-09T09:27:26;24.70;1.00
5492;DHT22;2768;53.540;10.224;2023-07-09T09:33:21;24.90;1.00
5492;DHT22;2768;53.540;10.224;2023-07-09T09:39:17;25.20;1.00
5492;DHT22;2768;53.540;10.224;2023-07-09T09:45:14;25.20;1.00
5492;DHT22;2768;53.540;10.224;2023-07-09T09:51:11;25.40;1.00
5492;DHT22;2768;53.540;10.224;2023-07-09T09:57:16;25.70;1.00
5492;DHT22;2768;53.540;10.224;2023-07-09T10:03:10;25.80;1.00
5492;DHT22;2768;53.540;10.224;2023-07-09T10:09:12;25.90;1.00
5492;DHT22;2768;53.540;10.224;2023-07-09T10:15:28;26.00;1.00
5492;DHT22;2768;53.540;10.224;2023-07-09T10:21:27;26.30;1.00
5492;DHT22;2768;53.540;10.224;2023-07-09T10:27:31;26.40;1.00
5492;DHT22;2768;53.540;10.224;2023-07-09T10:33:40;26.60;1.00
5492;DHT22;2768;53.540;10.224;2023-07-09T10:39:38;26.70;1.00
5492;DHT22;2768;53.540;10.224;2023-07-09T10:45:38;27.00;1.00
5492;DHT22;2768;53.540;10.224;2023-07-09T10:51:38;27.30;1.00
5492;DHT22;2768;53.540;10.224;2023-07-09T10:57:40;27.40;1.00
5492;DHT22;2768;53.540;10.224;2023-07-09T11:03:42;27.70;1.00
5492;DHT22;2768;53.540;10.224;2023-07-09T11:09:41;27.90;1.00
5492;DHT22;2768;53.540;10.224;2023-07-09T11:15:39;28.10;1.00
5492;DHT22;2768;53.540;10.224;2023-07-09T11:21:33;28.30;1.00
5492;DHT22;2768;53.540;10.224;2023-07-09T11:27:31;28.50;1.00
5492;DHT22;2768;53.540;10.224;2023-07-09T11:33:27;28.70;1.00
5492;DHT22;2768;53.540;10.224;2023-07-09T11:39:27;28.80;1.00
5492;DHT22;2768;53.540;10.224;2023-07-09T11:45:27;29.00;1.00
5492;DHT22;2768;53.540;10.224;2023-07-09T11:51:25;29.20;1.00
5492;DHT22;2768;53.540;10.224;2023-07-09T11:57:23;29.50;1.00
5492;DHT22;2768;53.540;10.224;2023-07-09T12:03:20;29.50;1.00
5492;DHT22;2768;53.540;10.224;2023-07-09T12:09:17;29.60;1.00
5492;DHT22;2768;53.540;10.224;2023-07-09T12:15:17;29.60;1.00
5492;DHT22;2768;53.540;10.224;2023-07-09T12:21:14;29.80;1.00
5492;DHT22;2768;53.540;10.224;2023-07-09T12:27:19;29.90;1.00
5492;DHT22;2768;53.540;10.224;2023-07-09T12:33:16;30.00;1.00
5492;DHT22;2768;53.540;10.224;2023-07-09T12:39:12;30.00;1.00
5492;DHT22;2768;53.540;10.224;2023-07-09T12:45:14;30.00;1.00
5492;DHT22;2768;53.540;10.224;2023-07-09T12:51:09;30.20;1.00
5492;DHT22;2768;53.540;10.224;2023-07-09T12:57:13;30.20;1.00
5492;DHT22;2768;53.540;10.224;2023-07-09T13:03:13;30.20;1.00
5492;DHT22;2768;53.540;10.224;2023-07-09T13:09:16;30.30;1.00
5492;DHT22;2768;53.540;10.224;2023-07-09T13:15:30;30.50;1.00
5492;DHT22;2768;53.540;10.224;2023-07-09T13:21:24;30.60;1.00
5492;DHT22;2768;53.540;10.224;2023-07-09T13:27:18;30.40;1.00
5492;DHT22;2768;53.540;10.224;2023-07-09T13:33:13;30.50;1.00
5492;DHT22;2768;53.540;10.224;2023-07-09T13:39:08;30.60;1.00
5492;DHT22;2768;53.540;10.224;2023-07-09T13:45:04;30.80;1.00
5492;DHT22;2768;53.540;10.224;2023-07-09T13:50:59;30.60;1.00
5492;DHT22;2768;53.540;10.224;2023-07-09T13:56:53;30.50;1.00
5492;DHT22;2768;53.540;10.224;2023-07-09T14:02:47;30.70;1.00
5492;DHT22;2768;53.540;10.224;2023-07-09T14:08:42;31.00;1.00
5492;DHT22;2768;53.540;10.224;2023-07-09T14:14:35;31.30;1.00
5492;DHT22;2768;53.540;10.224;2023-07-09T14:20:30;31.30;1.00
5492;DHT22;2768;53.540;10.224;2023-07-09T14:26:25;31.10;1.00
5492;DHT22;2768;53.540;10.224;2023-07-09T14:32:32;31.00;1.00
5492;DHT22;2768;53.540;10.224;2023-07-09T14:38:26;30.90;1.00
5492;DHT22;2768;53.540;10.224;2023-07-09T14:44:24;30.80;1.00
5492;DHT22;2768;53.540;10.224;2023-07-09T14:50:18;30.70;1.00
5492;DHT22;2768;53.540;10.224;2023-07-09T14:56:14;30.70;1.00
5492;DHT22;2768;53.540;10.224;2023-07-09T15:02:22;30.60;1.00
5492;DHT22;2768;53.540;10.224;2023-07-09T15:08:17;30.60;1.00
5492;DHT22;2768;53.540;10.224;2023-07-09T15:14:11;30.60;1.00
5492;DHT22;2768;53.540;10.224;2023-07-09T15:20:12;30.60;1.00
5492;DHT22;2768;53.540;10.224;2023-07-09T15:26:12;30.60;1.00
5492;DHT22;2768;53.540;10.224;2023-07-09T15:32:06;30.60;1.00
5492;DHT22;2768;53.540;10.224;2023-07-09T15:38:26;30.60;1.00
5492;DHT22;2768;53.540;10.224;2023-07-09T15:44:19;30.50;1.00
5492;DHT22;2768;53.540;10.224;2023-07-09T15:50:17;30.50;1.00
5492;DHT22;2768;53.540;10.224;2023-07-09T15:56:22;30.40;1.00
5492;DHT22;2768;53.540;10.224;2023-07-09T16:02:18;30.40;1.00
5492;DHT22;2768;53.540;10.224;2023-07-09T16:08:12;30.20;1.00
5492;DHT22;2768;53.540;10.224;2023-07-09T16:14:17;30.20;1.00
5492;DHT22;2768;53.540;10.224;2023-07-09T16:20:14;30.00;1.00
5492;DHT22;2768;53.540;10.224;2023-07-09T16:26:08;30.00;1.00
5492;DHT22;2768;53.540;10.224;2023-07-09T16:32:05;29.90;1.00
5492;DHT22;2768;53.540;10.224;2023-07-09T16:38:01;29.80;1.00
5492;DHT22;2768;53.540;10.224;2023-07-09T16:43:55;29.80;1.00
5492;DHT22;2768;53.540;10.224;2023-07-09T16:49:50;29.70;1.00
5492;DHT22;2768;53.540;10.224;2023-07-09T16:55:44;29.60;1.00
5492;DHT22;2768;53.540;10.224;2023-07-09T17:01:37;29.50;1.00
5492;DHT22;2768;53.540;10.224;2023-07-09T17:07:33;29.50;1.00
5492;DHT22;2768;53.540;10.224;2023-07-09T17:13:27;29.40;1.00
5492;DHT22;2768;53.540;10.224;2023-07-09T17:19:21;29.40;1.00
5492;DHT22;2768;53.540;10.224;2023-07-09T17:25:30;29.30;1.00
5492;DHT22;2768;53.540;10.224;2023-07-09T17:31:24;29.20;1.00
5492;DHT22;2768;53.540;10.224;2023-07-09T17:37:17;29.10;1.00
5492;DHT22;2768;53.540;10.224;2023-07-09T17:43:15;29.00;1.00
5492;DHT22;2768;53.540;10.224;2023-07-09T17:49:11;29.00;1.00
5492;DHT22;2768;53.540;10.224;2023-07-09T17:55:06;28.90;1.00
5492;DHT22;2768;53.540;10.224;2023-07-09T18:01:03;28.90;1.00
5492;DHT22;2768;53.540;10.224;2023-07-09T18:06:58;28.80;1.00
5492;DHT22;2768;53.540;10.224;2023-07-09T18:12:52;28.70;1.00
5492;DHT22;2768;53.540;10.224;2023-07-09T18:18:47;28.60;1.00
5492;DHT22;2768;53.540;10.224;2023-07-09T18:24:41;28.50;1.00
5492;DHT22;2768;53.540;10.224;2023-07-09T18:30:35;28.50;1.00
5492;DHT22;2768;53.540;10.224;2023-07-09T18:36:31;28.40;1.00
5492;DHT22;2768;53.540;10.224;2023-07-09T18:42:25;28.30;1.00
5492;DHT22;2768;53.540;10.224;2023-07-09T18:48:20;28.20;1.00
5492;DHT22;2768;53.540;10.224;2023-07-09T18:54:18;28.20;1.00
5492;DHT22;2768;53.540;10.224;2023-07-09T19:00:14;28.10;1.00
5492;DHT22;2768;53.540;10.224;2023-07-09T19:06:10;28.10;1.00
5492;DHT22;2768;53.540;10.224;2023-07-09T19:12:06;28.00;1.00
5492;DHT22;2768;53.540;10.224;2023-07-09T19:18:03;27.90;1.00
5492;DHT22;2768;53.540;10.224;2023-07-09T19:24:00;27.90;1.00
5492;DHT22;2768;53.540;10.224;2023-07-09T19:29:55;27.80;1.00
5492;DHT22;2768;53.540;10.224;2023-07-09T19:35:50;27.70;1.00
5492;DHT22;2768;53.540;10.224;2023-07-09T19:41:43;27.60;1.00
5492;DHT22;2768;53.540;10.224;2023-07-09T19:47:37;27.60;1.00
5492;DHT22;2768;53.540;10.224;2023-07-09T19:53:31;27.50;1.00
5492;DHT22;2768;53.540;10.224;2023-07-09T19:59:25;27.40;1.00
5492;DHT22;2768;53.540;10.224;2023-07-09T20:05:22;27.30;1.00
5492;DHT22;2768;53.540;10.224;2023-07-09T20:11:16;27.20;1.00
5492;DHT22;2768;53.540;10.224;2023-07-09T20:17:10;27.10;1.00
5492;DHT22;2768;53.540;10.224;2023-07-09T20:23:08;26.30;1.00
5492;DHT22;2768;53.540;10.224;2023-07-09T20:29:08;26.00;1.00
5492;DHT22;2768;53.540;10.224;2023-07-09T20:35:13;25.40;1.00
5492;DHT22;2768;53.540;10.224;2023-07-09T20:41:16;25.00;1.00
5492;DHT22;2768;53.540;10.224;2023-07-09T20:47:15;24.90;1.00
5492;DHT22;2768;53.540;10.224;2023-07-09T20:53:09;24.80;1.00
5492;DHT22;2768;53.540;10.224;2023-07-09T20:59:10;24.50;1.00
5492;DHT22;2768;53.540;10.224;2023-07-09T21:05:08;24.00;9.50
5492;DHT22;2768;53.540;10.224;2023-07-09T21:11:01;24.20;22.80
5492;DHT22;2768;53.540;10.224;2023-07-09T21:16:56;24.00;40.80
5492;DHT22;2768;53.540;10.224;2023-07-09T21:22:50;24.20;52.80
5492;DHT22;2768;53.540;10.224;2023-07-09T21:28:43;24.20;65.80
5492;DHT22;2768;53.540;10.224;2023-07-09T21:34:38;24.20;71.60
5492;DHT22;2768;53.540;10.224;2023-07-09T21:40:33;24.10;99.90
5492;DHT22;2768;53.540;10.224;2023-07-09T21:46:27;24.00;99.90
5492;DHT22;2768;53.540;10.224;2023-07-09T21:52:23;23.70;99.90
5492;DHT22;2768;53.540;10.224;2023-07-09T21:58:16;23.30;99.90
5492;DHT22;2768;53.540;10.224;2023-07-09T22:04:14;23.00;99.90
5492;DHT22;2768;53.540;10.224;2023-07-09T22:10:11;23.40;99.90
5492;DHT22;2768;53.540;10.224;2023-07-09T22:16:04;23.20;99.90
5492;DHT22;2768;53.540;10.224;2023-07-09T22:21:58;23.70;99.90
5492;DHT22;2768;53.540;10.224;2023-07-09T22:27:53;24.00;99.90
5492;DHT22;2768;53.540;10.224;2023-07-09T22:33:47;24.10;99.90
5492;DHT22;2768;53.540;10.224;2023-07-09T22:39:41;24.00;99.90
5492;DHT22;2768;53.540;10.224;2023-07-09T22:45:36;24.00;99.90
5492;DHT22;2768;53.540;10.224;2023-07-09T22:51:30;23.60;99.90
5492;DHT22;2768;53.540;10.224;2023-07-09T22:57:27;23.30;99.90
5492;DHT22;2768;53.540;10.224;2023-07-09T23:03:32;23.30;99.90
5492;DHT22;2768;53.540;10.224;2023-07-09T23:09:27;23.50;99.90
5492;DHT22;2768;53.540;10.224;2023-07-09T23:15:25;23.00;99.90
5492;DHT22;2768;53.540;10.224;2023-07-09T23:21:22;23.50;99.90
5492;DHT22;2768;53.540;10.224;2023-07-09T23:27:17;23.30;99.90
5492;DHT22;2768;53.540;10.224;2023-07-09T23:33:30;23.40;99.90
5492;DHT22;2768;53.540;10.224;2023-07-09T23:39:25;23.70;99.90
5492;DHT22;2768;53.540;10.224;2023-07-09T23:45:22;23.50;99.90
5492;DHT22;2768;53.540;10.224;2023-07-09T23:51:16;23.60;99.90
5492;DHT22;2768;53.540;10.224;2023-07-09T23:57:11;23.50;99.90
